Terminal Aerodrome Forecast
Issued by NWS Memphis, TN

Home | Current Version | Previous Version | Text Only | Print | Product List | Glossary On
Versions: 1 2 3 4 5 6 7 8 9 10 11 12 13 14 15 16 17 18 19 20 21 22 23 24 25 26 27
295
FTUS44 KMEG 262100 AAA
TAFMEM
TAF AMD
KMEM 262100Z 2621/2718 01012KT P6SM FEW025 BKN100
     FM270100 02007KT P6SM SKC
     FM270800 04004KT P6SM SKC=

USA.gov is the U.S. government's official web portal to all federal, state and local government web resources and services.